![]() |
EMODnet Physics ERDDAP
Easier access to scientific data |
log in|
Brought to you by EMODnet Physics |
| Dataset Title: | NDBC - Collection of dew point temperature (DEWT) TimeSeries - IN SITU MultiPointTimeSeriesObservation
|
| Institution: | NDBC (Dataset ID: TS_DEWT_NDBC) |
| Information: | Summary
| License
| FGDC
| ISO 19115
| Metadata
| Background
| Subset
| Data Access Form
| Make a graph
|
| Name | Last modified | Size | Description | |
|---|---|---|---|---|
| Parent Directory | - | - | ||
| CDXA2_TS_DEWT_012018.nc | 27-Oct-2024 07:06 | 429601 | ||
| CDXA2_TS_DEWT_012020.nc | 27-Oct-2024 07:06 | 429606 | ||
| CDXA2_TS_DEWT_012022.nc | 27-Oct-2024 07:06 | 429606 | ||
| CDXA2_TS_DEWT_012023.nc | 27-Oct-2024 07:06 | 429598 | ||
| CDXA2_TS_DEWT_012024.nc | 27-Oct-2024 07:07 | 427208 | ||
| CDXA2_TS_DEWT_012025.nc | 07-Feb-2025 11:10 | 420613 | ||
| CDXA2_TS_DEWT_022018.nc | 27-Oct-2024 07:07 | 426367 | ||
| CDXA2_TS_DEWT_022019.nc | 27-Oct-2024 07:07 | 426129 | ||
| CDXA2_TS_DEWT_022020.nc | 27-Oct-2024 07:07 | 429600 | ||
| CDXA2_TS_DEWT_022022.nc | 27-Oct-2024 07:07 | 429500 | ||
| CDXA2_TS_DEWT_022023.nc | 27-Oct-2024 07:07 | 424049 | ||
| CDXA2_TS_DEWT_022024.nc | 16-Sep-2024 16:51 | 429595 | ||
| CDXA2_TS_DEWT_022025.nc | 01-Mar-2025 05:44 | 429590 | ||
| CDXA2_TS_DEWT_032018.nc | 27-Oct-2024 07:07 | 429595 | ||
| CDXA2_TS_DEWT_032019.nc | 27-Oct-2024 07:07 | 429683 | ||
| CDXA2_TS_DEWT_032020.nc | 27-Oct-2024 07:07 | 429605 | ||
| CDXA2_TS_DEWT_032022.nc | 27-Oct-2024 07:07 | 425570 | ||
| CDXA2_TS_DEWT_032023.nc | 27-Oct-2024 07:07 | 425493 | ||
| CDXA2_TS_DEWT_032025.nc | 02-Apr-2025 04:35 | 428877 | ||
| CDXA2_TS_DEWT_042018.nc | 27-Oct-2024 07:07 | 428535 | ||
| CDXA2_TS_DEWT_042019.nc | 27-Oct-2024 07:07 | 428593 | ||
| CDXA2_TS_DEWT_042020.nc | 27-Oct-2024 07:07 | 428930 | ||
| CDXA2_TS_DEWT_042022.nc | 27-Oct-2024 07:07 | 425393 | ||
| CDXA2_TS_DEWT_042023.nc | 27-Oct-2024 07:07 | 428547 | ||
| CDXA2_TS_DEWT_042025.nc | 01-May-2025 05:12 | 428600 | ||
| CDXA2_TS_DEWT_052018.nc | 27-Oct-2024 07:07 | 428951 | ||
| CDXA2_TS_DEWT_052019.nc | 27-Oct-2024 07:07 | 426202 | ||
| CDXA2_TS_DEWT_052022.nc | 27-Oct-2024 07:07 | 429594 | ||
| CDXA2_TS_DEWT_052023.nc | 27-Oct-2024 07:08 | 429597 | ||
| CDXA2_TS_DEWT_052025.nc | 01-Jun-2025 06:54 | 429580 | ||
| CDXA2_TS_DEWT_062018.nc | 27-Oct-2024 07:08 | 429472 | ||
| CDXA2_TS_DEWT_062019.nc | 27-Oct-2024 07:08 | 429597 | ||
| CDXA2_TS_DEWT_062022.nc | 27-Oct-2024 07:08 | 429577 | ||
| CDXA2_TS_DEWT_062023.nc | 27-Oct-2024 07:08 | 429580 | ||
| CDXA2_TS_DEWT_062025.nc | 01-Jul-2025 06:18 | 429585 | ||
| CDXA2_TS_DEWT_072018.nc | 27-Oct-2024 07:08 | 429610 | ||
| CDXA2_TS_DEWT_072019.nc | 27-Oct-2024 07:08 | 429602 | ||
| CDXA2_TS_DEWT_072022.nc | 27-Oct-2024 07:08 | 426058 | ||
| CDXA2_TS_DEWT_072023.nc | 27-Oct-2024 07:08 | 429254 | ||
| CDXA2_TS_DEWT_072025.nc | 01-Aug-2025 06:30 | 429240 | ||
| CDXA2_TS_DEWT_082018.nc | 27-Oct-2024 07:08 | 429263 | ||
| CDXA2_TS_DEWT_082019.nc | 27-Oct-2024 07:08 | 429253 | ||
| CDXA2_TS_DEWT_082022.nc | 27-Oct-2024 07:08 | 429194 | ||
| CDXA2_TS_DEWT_082023.nc | 27-Oct-2024 07:08 | 429267 | ||
| CDXA2_TS_DEWT_082025.nc | 31-Aug-2025 06:12 | 429262 | ||
| CDXA2_TS_DEWT_092018.nc | 27-Oct-2024 07:08 | 429262 | ||
| CDXA2_TS_DEWT_092019.nc | 27-Oct-2024 07:08 | 429274 | ||
| CDXA2_TS_DEWT_092021.nc | 27-Oct-2024 07:08 | 429282 | ||
| CDXA2_TS_DEWT_092022.nc | 27-Oct-2024 07:09 | 426257 | ||
| CDXA2_TS_DEWT_092023.nc | 27-Oct-2024 07:09 | 429597 | ||
| CDXA2_TS_DEWT_092025.nc | 23-Sep-2025 11:20 | 429590 | ||
| CDXA2_TS_DEWT_102018.nc | 27-Oct-2024 07:09 | 429580 | ||
| CDXA2_TS_DEWT_102019.nc | 27-Oct-2024 07:09 | 429593 | ||
| CDXA2_TS_DEWT_102021.nc | 27-Oct-2024 07:09 | 429594 | ||
| CDXA2_TS_DEWT_102022.nc | 27-Oct-2024 07:09 | 429576 | ||
| CDXA2_TS_DEWT_102023.nc | 27-Oct-2024 07:09 | 429596 | ||
| CDXA2_TS_DEWT_102025.nc | 01-Nov-2025 06:30 | 429557 | ||
| CDXA2_TS_DEWT_112018.nc | 27-Oct-2024 07:09 | 429608 | ||
| CDXA2_TS_DEWT_112019.nc | 27-Oct-2024 07:09 | 429602 | ||
| CDXA2_TS_DEWT_112021.nc | 27-Oct-2024 07:09 | 426059 | ||
| CDXA2_TS_DEWT_112022.nc | 27-Oct-2024 07:09 | 429252 | ||
| CDXA2_TS_DEWT_112023.nc | 27-Oct-2024 07:09 | 429262 | ||
| CDXA2_TS_DEWT_112024.nc | 17-Jan-2025 16:57 | 429245 | ||
| CDXA2_TS_DEWT_112025.nc | 19-Nov-2025 07:54 | 429258 | ||
| CDXA2_TS_DEWT_122017.nc | 27-Oct-2024 07:09 | 429260 | ||
| CDXA2_TS_DEWT_122018.nc | 27-Oct-2024 07:09 | 429257 | ||
| CDXA2_TS_DEWT_122019.nc | 27-Oct-2024 07:09 | 429261 | ||
| CDXA2_TS_DEWT_122021.nc | 27-Oct-2024 07:09 | 429265 | ||
| CDXA2_TS_DEWT_122022.nc | 27-Oct-2024 07:09 | 429277 | ||
| CDXA2_TS_DEWT_122023.nc | 27-Oct-2024 07:09 | 428841 | ||
| CDXA2_TS_DEWT_122024.nc | 22-Jan-2025 17:51 | 426360 | ||